sensor_id;sensor_type;location;lat;lon;timestamp;pressure;altitude;pressure_sealevel;temperature;humidity
68807;BME280;55800;54.272;18.558;2023-09-30T00:01:26;100827.53;;;19.83;70.18
68807;BME280;55800;54.272;18.558;2023-09-30T00:03:55;100821.09;;;19.84;69.88
68807;BME280;55800;54.272;18.558;2023-09-30T00:06:25;100829.59;;;19.79;70.45
68807;BME280;55800;54.272;18.558;2023-09-30T00:08:55;100828.84;;;19.77;70.63
68807;BME280;55800;54.272;18.558;2023-09-30T00:11:26;100822.66;;;19.75;70.77
68807;BME280;55800;54.272;18.558;2023-09-30T00:13:55;100827.00;;;19.78;70.26
68807;BME280;55800;54.272;18.558;2023-09-30T00:16:24;100820.69;;;19.77;69.97
68807;BME280;55800;54.272;18.558;2023-09-30T00:18:55;100817.25;;;19.75;69.96
68807;BME280;55800;54.272;18.558;2023-09-30T00:21:27;100811.94;;;19.74;69.82
68807;BME280;55800;54.272;18.558;2023-09-30T00:23:57;100817.72;;;19.69;69.99
68807;BME280;55800;54.272;18.558;2023-09-30T00:26:31;100816.84;;;19.69;69.93
68807;BME280;55800;54.272;18.558;2023-09-30T00:29:00;100814.72;;;19.61;70.81
68807;BME280;55800;54.272;18.558;2023-09-30T00:31:32;100816.78;;;19.58;70.46
68807;BME280;55800;54.272;18.558;2023-09-30T00:34:01;100820.50;;;19.57;70.08
68807;BME280;55800;54.272;18.558;2023-09-30T00:36:30;100816.91;;;19.56;69.83
68807;BME280;55800;54.272;18.558;2023-09-30T00:38:59;100810.97;;;19.51;71.78
68807;BME280;55800;54.272;18.558;2023-09-30T00:41:28;100815.41;;;19.52;74.49
68807;BME280;55800;54.272;18.558;2023-09-30T00:43:59;100808.38;;;19.50;71.77
68807;BME280;55800;54.272;18.558;2023-09-30T00:46:28;100818.06;;;19.41;71.47
68807;BME280;55800;54.272;18.558;2023-09-30T00:48:58;100808.56;;;19.35;71.54
68807;BME280;55800;54.272;18.558;2023-09-30T00:51:28;100797.84;;;19.34;70.91
68807;BME280;55800;54.272;18.558;2023-09-30T00:53:58;100804.19;;;19.33;71.16
68807;BME280;55800;54.272;18.558;2023-09-30T00:56:28;100810.69;;;19.30;70.96
68807;BME280;55800;54.272;18.558;2023-09-30T00:59:00;100807.38;;;19.27;73.23
68807;BME280;55800;54.272;18.558;2023-09-30T01:01:29;100806.63;;;19.25;74.17
68807;BME280;55800;54.272;18.558;2023-09-30T01:03:59;100807.81;;;19.21;73.38
68807;BME280;55800;54.272;18.558;2023-09-30T01:06:28;100804.78;;;19.25;74.13
68807;BME280;55800;54.272;18.558;2023-09-30T01:08:57;100806.28;;;19.29;72.56
68807;BME280;55800;54.272;18.558;2023-09-30T01:11:27;100797.72;;;19.23;74.55
68807;BME280;55800;54.272;18.558;2023-09-30T01:13:57;100808.13;;;19.29;73.38
68807;BME280;55800;54.272;18.558;2023-09-30T01:16:27;100801.94;;;19.27;75.73
68807;BME280;55800;54.272;18.558;2023-09-30T01:18:56;100804.78;;;19.25;73.88
68807;BME280;55800;54.272;18.558;2023-09-30T01:21:25;100797.72;;;19.23;74.50
68807;BME280;55800;54.272;18.558;2023-09-30T01:23:57;100795.78;;;19.25;76.39
68807;BME280;55800;54.272;18.558;2023-09-30T01:26:26;100804.19;;;19.33;75.82
68807;BME280;55800;54.272;18.558;2023-09-30T01:28:55;100796.84;;;19.35;77.41
68807;BME280;55800;54.272;18.558;2023-09-30T01:31:24;100802.88;;;19.38;77.39
68807;BME280;55800;54.272;18.558;2023-09-30T01:33:54;100808.44;;;19.37;77.88
68807;BME280;55800;54.272;18.558;2023-09-30T01:36:24;100815.59;;;19.38;76.66
68807;BME280;55800;54.272;18.558;2023-09-30T01:38:53;100795.88;;;19.36;77.96
68807;BME280;55800;54.272;18.558;2023-09-30T01:41:23;100810.41;;;19.35;78.06
68807;BME280;55800;54.272;18.558;2023-09-30T01:43:53;100817.75;;;19.33;78.14
68807;BME280;55800;54.272;18.558;2023-09-30T01:46:22;100816.56;;;19.37;79.05
68807;BME280;55800;54.272;18.558;2023-09-30T01:48:52;100806.72;;;19.36;79.32
68807;BME280;55800;54.272;18.558;2023-09-30T01:51:21;100815.47;;;19.39;79.03
68807;BME280;55800;54.272;18.558;2023-09-30T01:53:51;100810.06;;;19.39;78.35
68807;BME280;55800;54.272;18.558;2023-09-30T01:56:20;100807.47;;;19.38;79.33
68807;BME280;55800;54.272;18.558;2023-09-30T01:58:51;100808.22;;;19.40;78.33
68807;BME280;55800;54.272;18.558;2023-09-30T02:01:20;100801.38;;;19.34;78.64
68807;BME280;55800;54.272;18.558;2023-09-30T02:03:51;100808.75;;;19.32;79.56
68807;BME280;55800;54.272;18.558;2023-09-30T02:06:21;100814.84;;;19.36;79.78
68807;BME280;55800;54.272;18.558;2023-09-30T02:08:50;100809.19;;;19.39;78.95
68807;BME280;55800;54.272;18.558;2023-09-30T02:11:19;100807.47;;;19.38;79.63
68807;BME280;55800;54.272;18.558;2023-09-30T02:13:49;100808.69;;;19.34;77.92
68807;BME280;55800;54.272;18.558;2023-09-30T02:16:21;100789.56;;;19.35;79.72
68807;BME280;55800;54.272;18.558;2023-09-30T02:18:52;100792.16;;;19.37;78.31
68807;BME280;55800;54.272;18.558;2023-09-30T02:21:21;100798.59;;;19.36;79.95
68807;BME280;55800;54.272;18.558;2023-09-30T02:23:50;100800.91;;;19.40;80.41
68807;BME280;55800;54.272;18.558;2023-09-30T02:26:23;100806.47;;;19.39;80.96
68807;BME280;55800;54.272;18.558;2023-09-30T02:28:55;100805.72;;;19.37;79.98
68807;BME280;55800;54.272;18.558;2023-09-30T02:31:26;100815.69;;;19.36;80.47
68807;BME280;55800;54.272;18.558;2023-09-30T02:33:55;100813.97;;;19.35;81.71
68807;BME280;55800;54.272;18.558;2023-09-30T02:36:25;100809.63;;;19.33;81.56
68807;BME280;55800;54.272;18.558;2023-09-30T02:38:55;100819.59;;;19.32;81.97
68807;BME280;55800;54.272;18.558;2023-09-30T02:41:25;100824.84;;;19.23;80.90
68807;BME280;55800;54.272;18.558;2023-09-30T02:43:54;100836.19;;;19.28;81.54
68807;BME280;55800;54.272;18.558;2023-09-30T02:46:23;100825.13;;;19.31;82.04
68807;BME280;55800;54.272;18.558;2023-09-30T02:48:57;100833.84;;;19.36;82.24
68807;BME280;55800;54.272;18.558;2023-09-30T02:51:26;100822.88;;;19.37;82.88
68807;BME280;55800;54.272;18.558;2023-09-30T02:53:57;100836.53;;;19.36;83.29
68807;BME280;55800;54.272;18.558;2023-09-30T02:56:26;100831.22;;;19.34;83.38
68807;BME280;55800;54.272;18.558;2023-09-30T02:58:58;100829.38;;;19.35;83.23
68807;BME280;55800;54.272;18.558;2023-09-30T03:01:27;100831.75;;;19.39;83.10
68807;BME280;55800;54.272;18.558;2023-09-30T03:03:58;100828.91;;;19.41;83.21
68807;BME280;55800;54.272;18.558;2023-09-30T03:06:28;100829.56;;;19.44;82.92
68807;BME280;55800;54.272;18.558;2023-09-30T03:08:57;100834.88;;;19.46;82.87
68807;BME280;55800;54.272;18.558;2023-09-30T03:11:26;100835.75;;;19.47;82.67
68807;BME280;55800;54.272;18.558;2023-09-30T03:13:57;100829.19;;;19.49;82.21
68807;BME280;55800;54.272;18.558;2023-09-30T03:16:26;100830.31;;;19.47;80.24
68807;BME280;55800;54.272;18.558;2023-09-30T03:18:55;100831.91;;;19.49;82.29
68807;BME280;55800;54.272;18.558;2023-09-30T03:21:26;100834.88;;;19.46;81.40
68807;BME280;55800;54.272;18.558;2023-09-30T03:23:55;100831.69;;;19.52;82.37
68807;BME280;55800;54.272;18.558;2023-09-30T03:26:24;100830.31;;;19.47;82.05
68807;BME280;55800;54.272;18.558;2023-09-30T03:28:55;100842.53;;;19.52;82.88
68807;BME280;55800;54.272;18.558;2023-09-30T03:31:25;100839.81;;;19.52;81.63
68807;BME280;55800;54.272;18.558;2023-09-30T03:33:54;100841.78;;;19.50;82.22
68807;BME280;55800;54.272;18.558;2023-09-30T03:36:24;100843.50;;;19.51;81.17
68807;BME280;55800;54.272;18.558;2023-09-30T03:38:54;100859.50;;;19.43;80.69
68807;BME280;55800;54.272;18.558;2023-09-30T03:41:26;100871.00;;;19.47;82.41
68807;BME280;55800;54.272;18.558;2023-09-30T03:43:56;100875.97;;;19.53;82.85
68807;BME280;55800;54.272;18.558;2023-09-30T03:46:25;100891.00;;;19.57;82.31
68807;BME280;55800;54.272;18.558;2023-09-30T03:48:55;100907.63;;;19.52;83.25
68807;BME280;55800;54.272;18.558;2023-09-30T03:51:24;100930.44;;;19.37;82.81
68807;BME280;55800;54.272;18.558;2023-09-30T03:53:55;100937.19;;;19.19;82.52
68807;BME280;55800;54.272;18.558;2023-09-30T03:56:25;100931.56;;;19.09;82.38
68807;BME280;55800;54.272;18.558;2023-09-30T03:58:54;100938.28;;;19.04;81.36
68807;BME280;55800;54.272;18.558;2023-09-30T04:01:23;100936.03;;;18.98;81.09
68807;BME280;55800;54.272;18.558;2023-09-30T04:03:53;100955.19;;;18.95;80.52
68807;BME280;55800;54.272;18.558;2023-09-30T04:06:24;100957.34;;;18.90;80.42
68807;BME280;55800;54.272;18.558;2023-09-30T04:08:54;100951.19;;;18.88;80.17
68807;BME280;55800;54.272;18.558;2023-09-30T04:11:24;100967.00;;;18.81;79.88
68807;BME280;55800;54.272;18.558;2023-09-30T04:13:53;100962.03;;;18.75;79.97
68807;BME280;55800;54.272;18.558;2023-09-30T04:16:23;100968.63;;;18.71;79.84
68807;BME280;55800;54.272;18.558;2023-09-30T04:18:56;100975.34;;;18.65;79.57
68807;BME280;55800;54.272;18.558;2023-09-30T04:21:26;100984.66;;;18.61;79.34
68807;BME280;55800;54.272;18.558;2023-09-30T04:23:58;100987.25;;;18.50;80.10
68807;BME280;55800;54.272;18.558;2023-09-30T04:26:28;100995.19;;;18.39;79.56
68807;BME280;55800;54.272;18.558;2023-09-30T04:28:58;100995.31;;;18.38;79.17
68807;BME280;55800;54.272;18.558;2023-09-30T04:31:27;100988.69;;;18.29;78.31
68807;BME280;55800;54.272;18.558;2023-09-30T04:33:56;100996.88;;;18.15;77.57
68807;BME280;55800;54.272;18.558;2023-09-30T04:36:26;100999.88;;;18.11;77.27
68807;BME280;55800;54.272;18.558;2023-09-30T04:38:56;101006.34;;;18.08;76.64
68807;BME280;55800;54.272;18.558;2023-09-30T04:41:29;101013.91;;;18.03;76.68
68807;BME280;55800;54.272;18.558;2023-09-30T04:43:59;101014.41;;;17.96;76.52
68807;BME280;55800;54.272;18.558;2023-09-30T04:46:28;101033.38;;;17.81;76.81
68807;BME280;55800;54.272;18.558;2023-09-30T04:48:57;101033.00;;;17.73;77.18
68807;BME280;55800;54.272;18.558;2023-09-30T04:51:26;101035.16;;;17.68;77.28
68807;BME280;55800;54.272;18.558;2023-09-30T04:53:56;101035.25;;;17.67;77.24
68807;BME280;55800;54.272;18.558;2023-09-30T04:56:27;101036.34;;;17.64;77.21
68807;BME280;55800;54.272;18.558;2023-09-30T04:58:57;101037.56;;;17.59;77.52
68807;BME280;55800;54.272;18.558;2023-09-30T05:01:27;101044.63;;;17.47;77.51
68807;BME280;55800;54.272;18.558;2023-09-30T05:03:56;101049.16;;;17.47;77.08
68807;BME280;55800;54.272;18.558;2023-09-30T05:06:26;101049.63;;;17.39;77.30
68807;BME280;55800;54.272;18.558;2023-09-30T05:08:55;101066.03;;;17.36;77.20
68807;BME280;55800;54.272;18.558;2023-09-30T05:11:24;101076.16;;;17.33;77.26
68807;BME280;55800;54.272;18.558;2023-09-30T05:13:53;101074.63;;;17.29;77.34
68807;BME280;55800;54.272;18.558;2023-09-30T05:16:24;101074.81;;;17.26;77.40
68807;BME280;55800;54.272;18.558;2023-09-30T05:18:55;101085.44;;;17.29;77.19
68807;BME280;55800;54.272;18.558;2023-09-30T05:21:24;101094.78;;;17.23;77.56
68807;BME280;55800;54.272;18.558;2023-09-30T05:23:53;101098.38;;;17.24;77.23
68807;BME280;55800;54.272;18.558;2023-09-30T05:26:23;101105.88;;;17.18;77.52
68807;BME280;55800;54.272;18.558;2023-09-30T05:28:52;101118.50;;;17.18;77.39
68807;BME280;55800;54.272;18.558;2023-09-30T05:31:21;101111.00;;;17.09;77.15
68807;BME280;55800;54.272;18.558;2023-09-30T05:33:52;101107.97;;;17.13;76.98
68807;BME280;55800;54.272;18.558;2023-09-30T05:36:21;101116.56;;;17.06;77.26
68807;BME280;55800;54.272;18.558;2023-09-30T05:38:50;101106.63;;;17.06;76.59
68807;BME280;55800;54.272;18.558;2023-09-30T05:41:19;101118.31;;;17.07;76.60
68807;BME280;55800;54.272;18.558;2023-09-30T05:43:48;101124.16;;;16.99;76.68
68807;BME280;55800;54.272;18.558;2023-09-30T05:46:17;101124.16;;;16.99;76.46
68807;BME280;55800;54.272;18.558;2023-09-30T05:48:47;101135.06;;;16.98;76.50
68807;BME280;55800;54.272;18.558;2023-09-30T05:51:17;101125.66;;;17.05;76.15
68807;BME280;55800;54.272;18.558;2023-09-30T05:53:47;101142.91;;;17.02;76.10
68807;BME280;55800;54.272;18.558;2023-09-30T05:56:16;101141.34;;;16.98;75.61
68807;BME280;55800;54.272;18.558;2023-09-30T05:58:46;101132.66;;;16.93;75.82
68807;BME280;55800;54.272;18.558;2023-09-30T06:01:15;101141.91;;;16.89;75.85
68807;BME280;55800;54.272;18.558;2023-09-30T06:03:47;101145.75;;;16.85;75.45
68807;BME280;55800;54.272;18.558;2023-09-30T06:06:17;101150.44;;;16.82;75.71
68807;BME280;55800;54.272;18.558;2023-09-30T06:08:47;101158.63;;;16.80;75.83
68807;BME280;55800;54.272;18.558;2023-09-30T06:11:16;101153.34;;;16.79;75.70
68807;BME280;55800;54.272;18.558;2023-09-30T06:13:45;101163.25;;;16.78;75.70
68807;BME280;55800;54.272;18.558;2023-09-30T06:16:14;101168.50;;;16.81;75.54
68807;BME280;55800;54.272;18.558;2023-09-30T06:18:44;101165.09;;;16.78;75.32
68807;BME280;55800;54.272;18.558;2023-09-30T06:21:13;101156.31;;;16.74;75.42
68807;BME280;55800;54.272;18.558;2023-09-30T06:23:47;101162.59;;;16.75;75.32
68807;BME280;55800;54.272;18.558;2023-09-30T06:26:16;101157.25;;;16.73;75.18
68807;BME280;55800;54.272;18.558;2023-09-30T06:28:45;101159.94;;;16.73;75.15
68807;BME280;55800;54.272;18.558;2023-09-30T06:31:15;101168.75;;;16.77;75.11
68807;BME280;55800;54.272;18.558;2023-09-30T06:33:45;101169.72;;;16.76;74.65
68807;BME280;55800;54.272;18.558;2023-09-30T06:36:14;101176.88;;;16.77;74.57
68807;BME280;55800;54.272;18.558;2023-09-30T06:38:44;101175.38;;;16.71;74.46
68807;BME280;55800;54.272;18.558;2023-09-30T06:41:17;101171.91;;;16.69;74.87
68807;BME280;55800;54.272;18.558;2023-09-30T06:43:46;101174.78;;;16.66;74.73
68807;BME280;55800;54.272;18.558;2023-09-30T06:46:16;101180.88;;;16.70;74.77
68807;BME280;55800;54.272;18.558;2023-09-30T06:48:45;101187.06;;;16.72;74.42
68807;BME280;55800;54.272;18.558;2023-09-30T06:51:14;101192.44;;;16.72;74.75
68807;BME280;55800;54.272;18.558;2023-09-30T06:53:45;101191.41;;;16.74;74.64
68807;BME280;55800;54.272;18.558;2023-09-30T06:56:14;101200.28;;;16.76;74.56
68807;BME280;55800;54.272;18.558;2023-09-30T06:58:45;101197.59;;;16.76;74.40
68807;BME280;55800;54.272;18.558;2023-09-30T07:01:14;101202.13;;;16.76;74.47
68807;BME280;55800;54.272;18.558;2023-09-30T07:03:44;101207.19;;;16.66;74.34
68807;BME280;55800;54.272;18.558;2023-09-30T07:06:21;101210.78;;;16.67;74.54
68807;BME280;55800;54.272;18.558;2023-09-30T07:08:50;101211.44;;;16.70;74.56
68807;BME280;55800;54.272;18.558;2023-09-30T07:11:26;101208.91;;;16.67;74.46
68807;BME280;55800;54.272;18.558;2023-09-30T07:13:57;101205.00;;;16.73;74.60
68807;BME280;55800;54.272;18.558;2023-09-30T07:16:26;101213.69;;;16.78;74.23
68807;BME280;55800;54.272;18.558;2023-09-30T07:18:55;101209.84;;;16.82;74.25
68807;BME280;55800;54.272;18.558;2023-09-30T07:21:25;101216.13;;;16.82;74.68
68807;BME280;55800;54.272;18.558;2023-09-30T07:23:54;101215.34;;;16.80;73.95
68807;BME280;55800;54.272;18.558;2023-09-30T07:26:23;101216.34;;;16.79;74.30
68807;BME280;55800;54.272;18.558;2023-09-30T07:28:53;101223.97;;;16.87;74.39
68807;BME280;55800;54.272;18.558;2023-09-30T07:31:25;101217.53;;;16.89;74.12
68807;BME280;55800;54.272;18.558;2023-09-30T07:33:55;101229.13;;;16.91;73.92
68807;BME280;55800;54.272;18.558;2023-09-30T07:36:24;101234.31;;;16.94;73.96
68807;BME280;55800;54.272;18.558;2023-09-30T07:38:53;101236.84;;;16.97;73.67
68807;BME280;55800;54.272;18.558;2023-09-30T07:41:23;101239.19;;;17.03;73.34
68807;BME280;55800;54.272;18.558;2023-09-30T07:43:52;101248.16;;;17.04;73.11
68807;BME280;55800;54.272;18.558;2023-09-30T07:46:21;101241.72;;;17.06;73.16
68807;BME280;55800;54.272;18.558;2023-09-30T07:48:52;101252.34;;;17.09;73.40
68807;BME280;55800;54.272;18.558;2023-09-30T07:51:23;101250.25;;;17.14;73.50
68807;BME280;55800;54.272;18.558;2023-09-30T07:53:52;101241.00;;;17.18;73.32
68807;BME280;55800;54.272;18.558;2023-09-30T07:56:21;101245.25;;;17.23;73.46
68807;BME280;55800;54.272;18.558;2023-09-30T07:58:51;101256.47;;;17.31;73.05
68807;BME280;55800;54.272;18.558;2023-09-30T08:01:20;101254.47;;;17.34;73.03
68807;BME280;55800;54.272;18.558;2023-09-30T08:03:50;101255.53;;;17.32;72.24
68807;BME280;55800;54.272;18.558;2023-09-30T08:06:20;101261.53;;;17.37;71.99
68807;BME280;55800;54.272;18.558;2023-09-30T08:08:50;101274.06;;;17.38;71.54
68807;BME280;55800;54.272;18.558;2023-09-30T08:11:19;101266.75;;;17.40;71.48
68807;BME280;55800;54.272;18.558;2023-09-30T08:13:49;101265.88;;;17.39;70.95
68807;BME280;55800;54.272;18.558;2023-09-30T08:16:18;101266.94;;;17.37;71.03
68807;BME280;55800;54.272;18.558;2023-09-30T08:18:49;101257.69;;;17.41;70.74
68807;BME280;55800;54.272;18.558;2023-09-30T08:21:18;101269.34;;;17.41;69.33
68807;BME280;55800;54.272;18.558;2023-09-30T08:23:49;101277.47;;;17.41;69.64
68807;BME280;55800;54.272;18.558;2023-09-30T08:26:18;101277.28;;;17.44;69.37
68807;BME280;55800;54.272;18.558;2023-09-30T08:28:47;101271.78;;;17.46;67.85
68807;BME280;55800;54.272;18.558;2023-09-30T08:31:16;101273.38;;;17.50;68.01
68807;BME280;55800;54.272;18.558;2023-09-30T08:33:45;101278.59;;;17.53;68.13
68807;BME280;55800;54.272;18.558;2023-09-30T08:36:15;101275.44;;;17.60;68.19
68807;BME280;55800;54.272;18.558;2023-09-30T08:38:44;101280.50;;;17.66;68.40
68807;BME280;55800;54.272;18.558;2023-09-30T08:41:17;101285.41;;;17.74;69.04
68807;BME280;55800;54.272;18.558;2023-09-30T08:43:53;101295.75;;;17.81;68.77
68807;BME280;55800;54.272;18.558;2023-09-30T08:46:24;101289.91;;;17.89;67.99
68807;BME280;55800;54.272;18.558;2023-09-30T08:48:54;101293.97;;;17.96;68.13
68807;BME280;55800;54.272;18.558;2023-09-30T08:51:23;101304.41;;;18.02;67.29
68807;BME280;55800;54.272;18.558;2023-09-30T08:53:53;101305.25;;;18.03;67.04
68807;BME280;55800;54.272;18.558;2023-09-30T08:56:27;101305.09;;;18.06;67.54
68807;BME280;55800;54.272;18.558;2023-09-30T08:58:57;101323.06;;;18.07;67.83
68807;BME280;55800;54.272;18.558;2023-09-30T09:01:27;101318.22;;;18.12;67.29
68807;BME280;55800;54.272;18.558;2023-09-30T09:03:57;101322.69;;;18.13;67.92
68807;BME280;55800;54.272;18.558;2023-09-30T09:06:26;101327.91;;;18.16;67.44
68807;BME280;55800;54.272;18.558;2023-09-30T09:09:02;101323.19;;;18.19;67.36
68807;BME280;55800;54.272;18.558;2023-09-30T09:11:42;101323.19;;;18.19;67.46
68807;BME280;55800;54.272;18.558;2023-09-30T09:14:12;101326.66;;;18.21;67.72
68807;BME280;55800;54.272;18.558;2023-09-30T09:16:52;101318.25;;;18.26;68.21
68807;BME280;55800;54.272;18.558;2023-09-30T09:19:22;101314.28;;;18.31;67.56
68807;BME280;55800;54.272;18.558;2023-09-30T09:21:55;101330.34;;;18.34;67.67
68807;BME280;55800;54.272;18.558;2023-09-30T09:24:28;101314.88;;;18.36;66.70
68807;BME280;55800;54.272;18.558;2023-09-30T09:27:06;101330.34;;;18.34;66.75
68807;BME280;55800;54.272;18.558;2023-09-30T09:29:36;101321.84;;;18.40;66.93
68807;BME280;55800;54.272;18.558;2023-09-30T09:32:09;101330.56;;;18.45;65.65
68807;BME280;55800;54.272;18.558;2023-09-30T09:34:38;101336.09;;;18.44;65.79
68807;BME280;55800;54.272;18.558;2023-09-30T09:37:12;101326.91;;;18.46;65.16
68807;BME280;55800;54.272;18.558;2023-09-30T09:39:51;101341.00;;;18.51;66.06
68807;BME280;55800;54.272;18.558;2023-09-30T09:42:26;101345.84;;;18.60;65.46
68807;BME280;55800;54.272;18.558;2023-09-30T09:44:56;101342.94;;;18.49;63.86
68807;BME280;55800;54.272;18.558;2023-09-30T09:47:25;101335.78;;;18.48;63.92
68807;BME280;55800;54.272;18.558;2023-09-30T09:49:55;101344.28;;;18.42;63.88
68807;BME280;55800;54.272;18.558;2023-09-30T09:52:25;101338.94;;;18.41;64.28
68807;BME280;55800;54.272;18.558;2023-09-30T09:54:56;101334.03;;;18.47;64.71
68807;BME280;55800;54.272;18.558;2023-09-30T09:57:28;101342.56;;;18.55;64.76
68807;BME280;55800;54.272;18.558;2023-09-30T09:59:59;101327.94;;;18.58;63.52
68807;BME280;55800;54.272;18.558;2023-09-30T10:02:33;101340.25;;;18.63;64.63
68807;BME280;55800;54.272;18.558;2023-09-30T10:05:03;101340.03;;;18.66;63.33
68807;BME280;55800;54.272;18.558;2023-09-30T10:07:33;101339.25;;;18.79;63.52
68807;BME280;55800;54.272;18.558;2023-09-30T10:10:06;101343.13;;;18.89;63.82
68807;BME280;55800;54.272;18.558;2023-09-30T10:12:38;101344.81;;;19.04;64.35
68807;BME280;55800;54.272;18.558;2023-09-30T10:17:56;101353.50;;;19.23;62.48
68807;BME280;55800;54.272;18.558;2023-09-30T10:20:26;101352.31;;;19.27;63.39
68807;BME280;55800;54.272;18.558;2023-09-30T10:25:49;101355.22;;;19.38;62.76
68807;BME280;55800;54.272;18.558;2023-09-30T10:28:36;101347.16;;;19.36;62.71
68807;BME280;55800;54.272;18.558;2023-09-30T10:31:10;101351.53;;;19.39;62.72
68807;BME280;55800;54.272;18.558;2023-09-30T10:36:27;101349.50;;;19.42;62.89
68807;BME280;55800;54.272;18.558;2023-09-30T10:38:57;101353.06;;;19.43;61.98
68807;BME280;55800;54.272;18.558;2023-09-30T10:44:33;101356.13;;;19.51;62.52
68807;BME280;55800;54.272;18.558;2023-09-30T10:49:50;101354.28;;;19.52;62.29
68807;BME280;55800;54.272;18.558;2023-09-30T10:52:21;101355.81;;;19.56;62.53
68807;BME280;55800;54.272;18.558;2023-09-30T10:54:50;101368.41;;;19.57;62.21
68807;BME280;55800;54.272;18.558;2023-09-30T10:57:26;101358.97;;;19.62;62.78
68807;BME280;55800;54.272;18.558;2023-09-30T11:00:10;101373.31;;;19.64;62.65
68807;BME280;55800;54.272;18.558;2023-09-30T11:02:49;101372.34;;;19.65;62.60
68807;BME280;55800;54.272;18.558;2023-09-30T11:05:19;101367.59;;;19.69;62.90
68807;BME280;55800;54.272;18.558;2023-09-30T11:08:07;101362.28;;;19.67;62.33
68807;BME280;55800;54.272;18.558;2023-09-30T11:10:38;101368.56;;;19.68;61.70
68807;BME280;55800;54.272;18.558;2023-09-30T11:13:15;101376.25;;;19.61;61.53
68807;BME280;55800;54.272;18.558;2023-09-30T11:15:46;101372.25;;;19.67;62.01
68807;BME280;55800;54.272;18.558;2023-09-30T11:18:16;101378.78;;;19.77;62.96
68807;BME280;55800;54.272;18.558;2023-09-30T11:20:45;101380.31;;;19.81;61.72
68807;BME280;55800;54.272;18.558;2023-09-30T11:23:15;101383.69;;;19.84;60.91
68807;BME280;55800;54.272;18.558;2023-09-30T11:25:44;101385.34;;;19.87;61.20
68807;BME280;55800;54.272;18.558;2023-09-30T11:28:14;101382.94;;;19.82;60.65
68807;BME280;55800;54.272;18.558;2023-09-30T11:30:54;101384.66;;;19.83;60.55
68807;BME280;55800;54.272;18.558;2023-09-30T11:33:24;101375.34;;;19.87;61.21
68807;BME280;55800;54.272;18.558;2023-09-30T11:35:57;101375.13;;;19.90;61.49
68807;BME280;55800;54.272;18.558;2023-09-30T11:38:27;101372.13;;;19.95;62.24
68807;BME280;55800;54.272;18.558;2023-09-30T11:40:59;101372.66;;;20.00;60.97
68807;BME280;55800;54.272;18.558;2023-09-30T11:43:29;101371.03;;;19.97;59.91
68807;BME280;55800;54.272;18.558;2023-09-30T11:46:05;101380.44;;;19.92;60.32
68807;BME280;55800;54.272;18.558;2023-09-30T11:48:37;101387.91;;;19.76;59.39
68807;BME280;55800;54.272;18.558;2023-09-30T11:51:07;101382.47;;;19.76;60.55
68807;BME280;55800;54.272;18.558;2023-09-30T11:53:37;101378.31;;;19.70;60.68
68807;BME280;55800;54.272;18.558;2023-09-30T11:56:06;101372.91;;;19.70;60.34
68807;BME280;55800;54.272;18.558;2023-09-30T11:58:38;101372.91;;;19.70;61.47
68807;BME280;55800;54.272;18.558;2023-09-30T12:01:09;101379.19;;;19.71;59.95
68807;BME280;55800;54.272;18.558;2023-09-30T12:03:41;101381.59;;;19.75;59.96
68807;BME280;55800;54.272;18.558;2023-09-30T12:06:11;101367.09;;;19.76;60.14
68807;BME280;55800;54.272;18.558;2023-09-30T12:08:41;101356.22;;;19.76;59.92
68807;BME280;55800;54.272;18.558;2023-09-30T12:11:10;101382.19;;;19.80;58.79
68807;BME280;55800;54.272;18.558;2023-09-30T12:13:41;101376.09;;;19.89;59.44
68807;BME280;55800;54.272;18.558;2023-09-30T12:16:13;101366.56;;;19.96;59.40
68807;BME280;55800;54.272;18.558;2023-09-30T12:18:43;101371.88;;;19.98;58.57
68807;BME280;55800;54.272;18.558;2023-09-30T12:21:12;101372.34;;;20.04;59.48
68807;BME280;55800;54.272;18.558;2023-09-30T12:23:42;101375.41;;;20.12;59.58
68807;BME280;55800;54.272;18.558;2023-09-30T12:26:11;101383.91;;;20.20;58.70
68807;BME280;55800;54.272;18.558;2023-09-30T12:28:44;101373.69;;;20.24;58.52
68807;BME280;55800;54.272;18.558;2023-09-30T12:31:14;101381.72;;;20.26;58.00
68807;BME280;55800;54.272;18.558;2023-09-30T12:33:45;101376.31;;;20.26;58.33
68807;BME280;55800;54.272;18.558;2023-09-30T12:36:18;101389.34;;;20.20;57.21
68807;BME280;55800;54.272;18.558;2023-09-30T12:38:47;101384.75;;;20.21;57.05
68807;BME280;55800;54.272;18.558;2023-09-30T12:41:16;101380.22;;;20.21;57.99
68807;BME280;55800;54.272;18.558;2023-09-30T12:43:47;101388.56;;;20.18;57.43
68807;BME280;55800;54.272;18.558;2023-09-30T12:46:17;101389.13;;;20.23;58.33
68807;BME280;55800;54.272;18.558;2023-09-30T12:48:47;101386.97;;;20.29;57.54
68807;BME280;55800;54.272;18.558;2023-09-30T12:51:16;101389.47;;;20.32;57.88
68807;BME280;55800;54.272;18.558;2023-09-30T12:53:46;101390.00;;;20.37;58.05
68807;BME280;55800;54.272;18.558;2023-09-30T12:56:15;101392.53;;;20.40;58.11
68807;BME280;55800;54.272;18.558;2023-09-30T12:58:45;101389.56;;;20.43;58.79
68807;BME280;55800;54.272;18.558;2023-09-30T13:01:14;101396.53;;;20.47;58.65
68807;BME280;55800;54.272;18.558;2023-09-30T13:03:51;101407.38;;;20.47;58.81
68807;BME280;55800;54.272;18.558;2023-09-30T13:06:21;101411.72;;;20.37;57.67
68807;BME280;55800;54.272;18.558;2023-09-30T13:08:50;101403.06;;;20.32;58.23
68807;BME280;55800;54.272;18.558;2023-09-30T13:11:20;101409.13;;;20.23;58.02